sensor_id;sensor_type;location;lat;lon;timestamp;P1;durP1;ratioP1;P2;durP2;ratioP2
63906;SDS011;50075;49.484;11.238;2022-09-09T00:01:22;64.20;;;8.10;;
63906;SDS011;50075;49.484;11.238;2022-09-09T00:04:05;49.33;;;6.05;;
63906;SDS011;50075;49.484;11.238;2022-09-09T00:09:21;52.22;;;6.78;;
63906;SDS011;50075;49.484;11.238;2022-09-09T00:14:31;51.33;;;6.95;;
63906;SDS011;50075;49.484;11.238;2022-09-09T00:17:01;48.92;;;6.05;;
63906;SDS011;50075;49.484;11.238;2022-09-09T00:20:19;49.67;;;7.93;;
63906;SDS011;50075;49.484;11.238;2022-09-09T00:22:27;50.38;;;6.95;;
63906;SDS011;50075;49.484;11.238;2022-09-09T00:25:09;49.53;;;7.00;;
63906;SDS011;50075;49.484;11.238;2022-09-09T00:33:33;50.05;;;6.18;;
63906;SDS011;50075;49.484;11.238;2022-09-09T00:35:41;47.65;;;6.25;;
63906;SDS011;50075;49.484;11.238;2022-09-09T00:50:00;47.95;;;6.22;;
63906;SDS011;50075;49.484;11.238;2022-09-09T00:58:06;47.20;;;6.07;;
63906;SDS011;50075;49.484;11.238;2022-09-09T01:03:43;42.72;;;6.00;;
63906;SDS011;50075;49.484;11.238;2022-09-09T01:11:42;39.72;;;5.88;;
63906;SDS011;50075;49.484;11.238;2022-09-09T01:14:29;50.63;;;6.70;;
63906;SDS011;50075;49.484;11.238;2022-09-09T01:20:02;40.00;;;5.57;;
63906;SDS011;50075;49.484;11.238;2022-09-09T01:28:29;30.77;;;4.80;;
63906;SDS011;50075;49.484;11.238;2022-09-09T01:30:55;38.88;;;5.28;;
63906;SDS011;50075;49.484;11.238;2022-09-09T01:33:22;37.65;;;5.63;;
63906;SDS011;50075;49.484;11.238;2022-09-09T01:35:52;33.25;;;5.25;;
63906;SDS011;50075;49.484;11.238;2022-09-09T01:38:21;44.03;;;5.85;;
63906;SDS011;50075;49.484;11.238;2022-09-09T01:40:48;42.15;;;5.88;;
63906;SDS011;50075;49.484;11.238;2022-09-09T01:43:17;42.00;;;5.95;;
63906;SDS011;50075;49.484;11.238;2022-09-09T01:45:46;38.88;;;6.03;;
63906;SDS011;50075;49.484;11.238;2022-09-09T01:48:14;43.30;;;6.10;;
63906;SDS011;50075;49.484;11.238;2022-09-09T01:50:40;41.00;;;5.53;;
63906;SDS011;50075;49.484;11.238;2022-09-09T01:53:06;30.80;;;4.93;;
63906;SDS011;50075;49.484;11.238;2022-09-09T01:55:32;33.28;;;5.00;;
63906;SDS011;50075;49.484;11.238;2022-09-09T02:01:15;38.63;;;5.47;;
63906;SDS011;50075;49.484;11.238;2022-09-09T02:03:37;42.63;;;5.43;;
63906;SDS011;50075;49.484;11.238;2022-09-09T02:08:50;40.03;;;5.38;;
63906;SDS011;50075;49.484;11.238;2022-09-09T02:11:20;39.20;;;5.45;;
63906;SDS011;50075;49.484;11.238;2022-09-09T02:13:48;31.35;;;4.97;;
63906;SDS011;50075;49.484;11.238;2022-09-09T02:16:25;33.63;;;5.00;;
63906;SDS011;50075;49.484;11.238;2022-09-09T02:18:53;36.92;;;4.93;;
63906;SDS011;50075;49.484;11.238;2022-09-09T02:21:26;33.30;;;5.13;;
63906;SDS011;50075;49.484;11.238;2022-09-09T02:23:54;35.80;;;4.95;;
63906;SDS011;50075;49.484;11.238;2022-09-09T02:26:22;33.20;;;4.78;;
63906;SDS011;50075;49.484;11.238;2022-09-09T02:28:50;41.40;;;5.95;;
63906;SDS011;50075;49.484;11.238;2022-09-09T02:31:20;33.17;;;5.20;;
63906;SDS011;50075;49.484;11.238;2022-09-09T02:33:51;53.15;;;6.70;;
63906;SDS011;50075;49.484;11.238;2022-09-09T02:36:21;28.23;;;4.87;;
63906;SDS011;50075;49.484;11.238;2022-09-09T02:38:51;38.72;;;5.82;;
63906;SDS011;50075;49.484;11.238;2022-09-09T02:41:35;35.50;;;5.25;;
63906;SDS011;50075;49.484;11.238;2022-09-09T02:44:05;35.40;;;5.05;;
63906;SDS011;50075;49.484;11.238;2022-09-09T02:49:01;36.90;;;5.30;;
63906;SDS011;50075;49.484;11.238;2022-09-09T02:56:27;34.78;;;5.30;;
63906;SDS011;50075;49.484;11.238;2022-09-09T02:58:58;41.42;;;5.25;;
63906;SDS011;50075;49.484;11.238;2022-09-09T03:01:24;42.15;;;5.30;;
63906;SDS011;50075;49.484;11.238;2022-09-09T03:03:49;41.08;;;5.60;;
63906;SDS011;50075;49.484;11.238;2022-09-09T03:06:15;42.53;;;5.90;;
63906;SDS011;50075;49.484;11.238;2022-09-09T03:08:40;37.50;;;4.88;;
63906;SDS011;50075;49.484;11.238;2022-09-09T03:11:07;47.83;;;6.10;;
63906;SDS011;50075;49.484;11.238;2022-09-09T03:13:34;37.85;;;4.97;;
63906;SDS011;50075;49.484;11.238;2022-09-09T03:15:59;34.63;;;4.68;;
63906;SDS011;50075;49.484;11.238;2022-09-09T03:18:24;31.98;;;4.95;;
63906;SDS011;50075;49.484;11.238;2022-09-09T03:20:50;34.95;;;5.38;;
63906;SDS011;50075;49.484;11.238;2022-09-09T03:23:16;41.05;;;5.13;;
63906;SDS011;50075;49.484;11.238;2022-09-09T03:25:48;38.95;;;5.07;;
63906;SDS011;50075;49.484;11.238;2022-09-09T03:30:39;35.05;;;4.78;;
63906;SDS011;50075;49.484;11.238;2022-09-09T03:33:04;35.50;;;4.90;;
63906;SDS011;50075;49.484;11.238;2022-09-09T03:35:30;42.22;;;5.63;;
63906;SDS011;50075;49.484;11.238;2022-09-09T03:37:55;27.40;;;4.28;;
63906;SDS011;50075;49.484;11.238;2022-09-09T03:40:21;38.60;;;5.50;;
63906;SDS011;50075;49.484;11.238;2022-09-09T03:42:46;34.58;;;4.70;;
63906;SDS011;50075;49.484;11.238;2022-09-09T03:45:13;40.08;;;5.38;;
63906;SDS011;50075;49.484;11.238;2022-09-09T03:47:38;49.88;;;6.30;;
63906;SDS011;50075;49.484;11.238;2022-09-09T03:50:04;33.38;;;4.80;;
63906;SDS011;50075;49.484;11.238;2022-09-09T03:52:34;46.28;;;6.07;;
63906;SDS011;50075;49.484;11.238;2022-09-09T03:55:03;30.25;;;4.18;;
63906;SDS011;50075;49.484;11.238;2022-09-09T03:57:29;36.05;;;5.00;;
63906;SDS011;50075;49.484;11.238;2022-09-09T03:59:55;31.65;;;4.93;;
63906;SDS011;50075;49.484;11.238;2022-09-09T04:02:20;33.55;;;4.90;;
63906;SDS011;50075;49.484;11.238;2022-09-09T04:04:46;44.53;;;5.90;;
63906;SDS011;50075;49.484;11.238;2022-09-09T04:07:11;32.30;;;4.88;;
63906;SDS011;50075;49.484;11.238;2022-09-09T04:09:37;40.88;;;5.45;;
63906;SDS011;50075;49.484;11.238;2022-09-09T04:12:03;29.85;;;4.53;;
63906;SDS011;50075;49.484;11.238;2022-09-09T04:14:29;41.47;;;6.10;;
63906;SDS011;50075;49.484;11.238;2022-09-09T04:16:55;39.40;;;5.20;;
63906;SDS011;50075;49.484;11.238;2022-09-09T04:19:23;29.27;;;4.60;;
63906;SDS011;50075;49.484;11.238;2022-09-09T04:21:48;33.67;;;5.25;;
63906;SDS011;50075;49.484;11.238;2022-09-09T04:24:15;37.88;;;4.63;;
63906;SDS011;50075;49.484;11.238;2022-09-09T04:26:41;33.38;;;4.55;;
63906;SDS011;50075;49.484;11.238;2022-09-09T04:29:06;38.05;;;5.22;;
63906;SDS011;50075;49.484;11.238;2022-09-09T04:31:32;30.08;;;4.28;;
63906;SDS011;50075;49.484;11.238;2022-09-09T04:33:58;31.15;;;4.45;;
63906;SDS011;50075;49.484;11.238;2022-09-09T04:36:27;43.45;;;4.97;;
63906;SDS011;50075;49.484;11.238;2022-09-09T04:38:52;30.17;;;4.50;;
63906;SDS011;50075;49.484;11.238;2022-09-09T04:41:18;36.65;;;4.60;;
63906;SDS011;50075;49.484;11.238;2022-09-09T04:43:43;33.15;;;4.55;;
63906;SDS011;50075;49.484;11.238;2022-09-09T04:46:09;35.85;;;5.05;;
63906;SDS011;50075;49.484;11.238;2022-09-09T04:48:35;31.08;;;4.20;;
63906;SDS011;50075;49.484;11.238;2022-09-09T04:51:01;40.22;;;5.32;;
63906;SDS011;50075;49.484;11.238;2022-09-09T04:53:29;28.02;;;3.90;;
63906;SDS011;50075;49.484;11.238;2022-09-09T04:56:05;26.50;;;4.10;;
63906;SDS011;50075;49.484;11.238;2022-09-09T04:58:32;31.58;;;4.60;;
63906;SDS011;50075;49.484;11.238;2022-09-09T05:03:29;33.10;;;4.93;;
63906;SDS011;50075;49.484;11.238;2022-09-09T05:06:01;31.40;;;4.50;;
63906;SDS011;50075;49.484;11.238;2022-09-09T05:08:37;27.73;;;4.28;;
63906;SDS011;50075;49.484;11.238;2022-09-09T05:11:25;42.97;;;5.55;;
63906;SDS011;50075;49.484;11.238;2022-09-09T05:13:51;34.25;;;5.05;;
63906;SDS011;50075;49.484;11.238;2022-09-09T05:16:17;30.05;;;4.47;;
63906;SDS011;50075;49.484;11.238;2022-09-09T05:18:44;34.15;;;4.90;;
63906;SDS011;50075;49.484;11.238;2022-09-09T05:21:11;35.95;;;5.05;;
63906;SDS011;50075;49.484;11.238;2022-09-09T05:23:37;40.38;;;5.32;;
63906;SDS011;50075;49.484;11.238;2022-09-09T05:26:03;30.95;;;4.25;;
63906;SDS011;50075;49.484;11.238;2022-09-09T05:28:30;38.72;;;5.43;;
63906;SDS011;50075;49.484;11.238;2022-09-09T05:30:58;35.30;;;4.78;;
63906;SDS011;50075;49.484;11.238;2022-09-09T05:33:26;29.55;;;4.25;;
63906;SDS011;50075;49.484;11.238;2022-09-09T05:35:59;37.60;;;5.85;;
63906;SDS011;50075;49.484;11.238;2022-09-09T05:38:27;39.75;;;7.68;;
63906;SDS011;50075;49.484;11.238;2022-09-09T05:40:53;40.10;;;6.10;;
63906;SDS011;50075;49.484;11.238;2022-09-09T05:43:21;33.80;;;5.35;;
63906;SDS011;50075;49.484;11.238;2022-09-09T05:46:08;44.85;;;6.35;;
63906;SDS011;50075;49.484;11.238;2022-09-09T05:48:34;36.35;;;5.10;;
63906;SDS011;50075;49.484;11.238;2022-09-09T05:51:02;43.53;;;6.45;;
63906;SDS011;50075;49.484;11.238;2022-09-09T05:53:29;30.27;;;5.32;;
63906;SDS011;50075;49.484;11.238;2022-09-09T05:56:04;39.03;;;6.38;;
63906;SDS011;50075;49.484;11.238;2022-09-09T05:58:36;30.30;;;5.28;;
63906;SDS011;50075;49.484;11.238;2022-09-09T06:01:02;42.08;;;6.38;;
63906;SDS011;50075;49.484;11.238;2022-09-09T06:03:29;32.22;;;4.68;;
63906;SDS011;50075;49.484;11.238;2022-09-09T06:06:01;33.60;;;5.53;;
63906;SDS011;50075;49.484;11.238;2022-09-09T06:08:30;29.00;;;4.68;;
63906;SDS011;50075;49.484;11.238;2022-09-09T06:11:00;44.28;;;6.05;;
63906;SDS011;50075;49.484;11.238;2022-09-09T06:13:28;25.15;;;4.43;;
63906;SDS011;50075;49.484;11.238;2022-09-09T06:15:53;34.80;;;5.55;;
63906;SDS011;50075;49.484;11.238;2022-09-09T06:18:19;34.47;;;6.45;;
63906;SDS011;50075;49.484;11.238;2022-09-09T06:20:57;33.08;;;5.78;;
63906;SDS011;50075;49.484;11.238;2022-09-09T06:23:25;28.30;;;5.25;;
63906;SDS011;50075;49.484;11.238;2022-09-09T06:25:51;32.60;;;5.30;;
63906;SDS011;50075;49.484;11.238;2022-09-09T06:28:17;40.78;;;5.90;;
63906;SDS011;50075;49.484;11.238;2022-09-09T06:30:44;32.47;;;5.85;;
63906;SDS011;50075;49.484;11.238;2022-09-09T06:33:09;33.83;;;5.60;;
63906;SDS011;50075;49.484;11.238;2022-09-09T06:35:35;30.48;;;5.13;;
63906;SDS011;50075;49.484;11.238;2022-09-09T06:38:00;31.17;;;4.68;;
63906;SDS011;50075;49.484;11.238;2022-09-09T06:40:26;30.67;;;4.90;;
63906;SDS011;50075;49.484;11.238;2022-09-09T06:42:51;29.67;;;4.75;;
63906;SDS011;50075;49.484;11.238;2022-09-09T06:45:16;29.90;;;4.60;;
63906;SDS011;50075;49.484;11.238;2022-09-09T06:47:42;26.98;;;4.57;;
63906;SDS011;50075;49.484;11.238;2022-09-09T06:50:08;23.77;;;4.32;;
63906;SDS011;50075;49.484;11.238;2022-09-09T06:52:35;29.63;;;4.88;;
63906;SDS011;50075;49.484;11.238;2022-09-09T06:55:00;29.05;;;4.57;;
63906;SDS011;50075;49.484;11.238;2022-09-09T06:57:25;31.20;;;4.88;;
63906;SDS011;50075;49.484;11.238;2022-09-09T06:59:51;30.42;;;6.25;;
63906;SDS011;50075;49.484;11.238;2022-09-09T07:02:16;27.92;;;4.72;;
63906;SDS011;50075;49.484;11.238;2022-09-09T07:04:41;29.92;;;4.32;;
63906;SDS011;50075;49.484;11.238;2022-09-09T07:07:08;24.05;;;3.60;;
63906;SDS011;50075;49.484;11.238;2022-09-09T07:09:34;28.65;;;4.35;;
63906;SDS011;50075;49.484;11.238;2022-09-09T07:12:00;19.55;;;3.55;;
63906;SDS011;50075;49.484;11.238;2022-09-09T07:14:25;19.20;;;5.47;;
63906;SDS011;50075;49.484;11.238;2022-09-09T07:16:51;24.90;;;3.90;;
63906;SDS011;50075;49.484;11.238;2022-09-09T07:19:17;34.45;;;12.38;;
63906;SDS011;50075;49.484;11.238;2022-09-09T07:21:42;31.77;;;7.93;;
63906;SDS011;50075;49.484;11.238;2022-09-09T07:24:08;19.00;;;3.58;;
63906;SDS011;50075;49.484;11.238;2022-09-09T07:26:35;22.30;;;3.88;;
63906;SDS011;50075;49.484;11.238;2022-09-09T07:29:02;13.13;;;2.95;;
63906;SDS011;50075;49.484;11.238;2022-09-09T07:31:28;21.73;;;5.07;;
63906;SDS011;50075;49.484;11.238;2022-09-09T07:33:55;25.48;;;4.53;;
63906;SDS011;50075;49.484;11.238;2022-09-09T07:36:22;19.80;;;3.40;;
63906;SDS011;50075;49.484;11.238;2022-09-09T07:38:52;22.95;;;3.65;;
63906;SDS011;50075;49.484;11.238;2022-09-09T07:43:47;20.60;;;3.38;;
63906;SDS011;50075;49.484;11.238;2022-09-09T07:46:14;20.58;;;3.33;;
63906;SDS011;50075;49.484;11.238;2022-09-09T07:48:45;17.85;;;3.15;;
63906;SDS011;50075;49.484;11.238;2022-09-09T07:51:13;31.80;;;4.60;;
63906;SDS011;50075;49.484;11.238;2022-09-09T07:53:44;22.08;;;3.65;;
63906;SDS011;50075;49.484;11.238;2022-09-09T07:56:12;28.35;;;4.15;;
63906;SDS011;50075;49.484;11.238;2022-09-09T07:58:40;21.17;;;3.35;;
63906;SDS011;50075;49.484;11.238;2022-09-09T08:01:09;24.90;;;4.03;;
63906;SDS011;50075;49.484;11.238;2022-09-09T08:03:37;23.20;;;3.70;;
63906;SDS011;50075;49.484;11.238;2022-09-09T08:06:04;19.73;;;2.97;;
63906;SDS011;50075;49.484;11.238;2022-09-09T08:08:33;16.15;;;3.05;;
63906;SDS011;50075;49.484;11.238;2022-09-09T08:11:03;17.10;;;3.35;;
63906;SDS011;50075;49.484;11.238;2022-09-09T08:13:28;23.58;;;3.88;;
63906;SDS011;50075;49.484;11.238;2022-09-09T08:15:53;16.42;;;3.50;;
63906;SDS011;50075;49.484;11.238;2022-09-09T08:18:19;19.10;;;3.67;;
63906;SDS011;50075;49.484;11.238;2022-09-09T08:20:44;21.63;;;4.47;;
63906;SDS011;50075;49.484;11.238;2022-09-09T08:23:09;20.00;;;3.40;;
63906;SDS011;50075;49.484;11.238;2022-09-09T08:25:35;20.98;;;4.07;;
63906;SDS011;50075;49.484;11.238;2022-09-09T08:28:00;14.65;;;2.90;;
63906;SDS011;50075;49.484;11.238;2022-09-09T08:30:26;17.85;;;3.58;;
63906;SDS011;50075;49.484;11.238;2022-09-09T08:32:52;13.00;;;2.67;;
63906;SDS011;50075;49.484;11.238;2022-09-09T08:35:17;15.93;;;2.88;;
63906;SDS011;50075;49.484;11.238;2022-09-09T08:37:42;18.27;;;3.45;;
63906;SDS011;50075;49.484;11.238;2022-09-09T08:40:12;15.40;;;3.03;;
63906;SDS011;50075;49.484;11.238;2022-09-09T08:42:49;18.13;;;3.50;;
63906;SDS011;50075;49.484;11.238;2022-09-09T08:45:26;10.65;;;2.67;;
63906;SDS011;50075;49.484;11.238;2022-09-09T08:51:17;13.43;;;3.22;;
63906;SDS011;50075;49.484;11.238;2022-09-09T08:53:44;16.30;;;3.38;;
63906;SDS011;50075;49.484;11.238;2022-09-09T08:56:14;14.40;;;3.00;;
63906;SDS011;50075;49.484;11.238;2022-09-09T08:58:45;13.43;;;2.97;;
63906;SDS011;50075;49.484;11.238;2022-09-09T09:04:27;11.18;;;2.60;;
63906;SDS011;50075;49.484;11.238;2022-09-09T09:07:08;14.25;;;3.03;;
63906;SDS011;50075;49.484;11.238;2022-09-09T09:10:00;13.25;;;2.75;;
63906;SDS011;50075;49.484;11.238;2022-09-09T09:12:40;13.13;;;2.70;;
63906;SDS011;50075;49.484;11.238;2022-09-09T09:15:14;19.73;;;3.35;;
63906;SDS011;50075;49.484;11.238;2022-09-09T09:17:48;12.75;;;2.40;;
63906;SDS011;50075;49.484;11.238;2022-09-09T09:20:14;14.55;;;3.17;;
63906;SDS011;50075;49.484;11.238;2022-09-09T09:25:20;15.13;;;2.92;;
63906;SDS011;50075;49.484;11.238;2022-09-09T09:30:48;12.65;;;2.80;;
63906;SDS011;50075;49.484;11.238;2022-09-09T09:36:05;14.68;;;2.97;;
63906;SDS011;50075;49.484;11.238;2022-09-09T09:38:33;12.85;;;3.00;;
63906;SDS011;50075;49.484;11.238;2022-09-09T09:41:00;16.45;;;3.28;;
63906;SDS011;50075;49.484;11.238;2022-09-09T09:43:36;16.30;;;2.92;;
63906;SDS011;50075;49.484;11.238;2022-09-09T09:46:05;10.57;;;2.35;;
63906;SDS011;50075;49.484;11.238;2022-09-09T09:48:45;12.25;;;2.40;;
63906;SDS011;50075;49.484;11.238;2022-09-09T09:51:21;19.25;;;3.47;;
63906;SDS011;50075;49.484;11.238;2022-09-09T09:53:48;15.13;;;3.03;;
63906;SDS011;50075;49.484;11.238;2022-09-09T09:56:14;14.35;;;2.65;;
63906;SDS011;50075;49.484;11.238;2022-09-09T10:01:30;15.13;;;2.95;;
63906;SDS011;50075;49.484;11.238;2022-09-09T10:04:14;14.45;;;2.60;;
63906;SDS011;50075;49.484;11.238;2022-09-09T10:06:45;15.70;;;2.85;;
63906;SDS011;50075;49.484;11.238;2022-09-09T10:15:02;14.35;;;2.53;;
63906;SDS011;50075;49.484;11.238;2022-09-09T10:29:03;16.65;;;3.13;;
63906;SDS011;50075;49.484;11.238;2022-09-09T10:37:30;13.38;;;2.65;;
63906;SDS011;50075;49.484;11.238;2022-09-09T10:40:34;13.80;;;2.72;;
63906;SDS011;50075;49.484;11.238;2022-09-09T10:57:44;19.48;;;3.15;;
63906;SDS011;50075;49.484;11.238;2022-09-09T11:03:01;14.18;;;2.78;;
63906;SDS011;50075;49.484;11.238;2022-09-09T11:08:24;21.45;;;3.65;;
63906;SDS011;50075;49.484;11.238;2022-09-09T11:10:53;18.98;;;3.28;;
63906;SDS011;50075;49.484;11.238;2022-09-09T11:13:24;13.52;;;2.85;;
63906;SDS011;50075;49.484;11.238;2022-09-09T11:18:43;15.75;;;2.55;;
63906;SDS011;50075;49.484;11.238;2022-09-09T11:24:00;12.57;;;2.35;;
63906;SDS011;50075;49.484;11.238;2022-09-09T11:26:32;16.33;;;3.00;;
63906;SDS011;50075;49.484;11.238;2022-09-09T11:42:25;15.50;;;2.72;;
63906;SDS011;50075;49.484;11.238;2022-09-09T11:44:51;17.60;;;2.88;;
63906;SDS011;50075;49.484;11.238;2022-09-09T11:50:41;15.60;;;2.70;;
63906;SDS011;50075;49.484;11.238;2022-09-09T11:52:42;28.45;;;4.28;;
63906;SDS011;50075;49.484;11.238;2022-09-09T11:55:26;27.25;;;4.30;;
63906;SDS011;50075;49.484;11.238;2022-09-09T11:58:00;19.95;;;3.40;;
63906;SDS011;50075;49.484;11.238;2022-09-09T12:00:34;20.67;;;3.28;;
63906;SDS011;50075;49.484;11.238;2022-09-09T12:03:08;24.00;;;4.97;;
63906;SDS011;50075;49.484;11.238;2022-09-09T12:09:12;16.48;;;2.78;;
63906;SDS011;50075;49.484;11.238;2022-09-09T12:11:40;18.85;;;3.17;;
63906;SDS011;50075;49.484;11.238;2022-09-09T12:14:18;17.75;;;2.90;;
63906;SDS011;50075;49.484;11.238;2022-09-09T12:17:10;22.95;;;3.45;;
63906;SDS011;50075;49.484;11.238;2022-09-09T12:19:44;19.25;;;3.30;;
63906;SDS011;50075;49.484;11.238;2022-09-09T12:27:30;19.92;;;6.45;;
63906;SDS011;50075;49.484;11.238;2022-09-09T12:30:12;24.17;;;3.63;;
63906;SDS011;50075;49.484;11.238;2022-09-09T12:32:40;17.27;;;3.00;;
63906;SDS011;50075;49.484;11.238;2022-09-09T12:35:10;18.98;;;3.28;;
63906;SDS011;50075;49.484;11.238;2022-09-09T12:40:18;23.80;;;3.30;;
63906;SDS011;50075;49.484;11.238;2022-09-09T12:42:48;17.25;;;2.83;;
63906;SDS011;50075;49.484;11.238;2022-09-09T12:45:19;24.42;;;3.58;;
63906;SDS011;50075;49.484;11.238;2022-09-09T12:50:16;26.45;;;3.60;;
63906;SDS011;50075;49.484;11.238;2022-09-09T12:52:42;18.48;;;2.83;;
63906;SDS011;50075;49.484;11.238;2022-09-09T12:55:15;21.67;;;3.40;;
63906;SDS011;50075;49.484;11.238;2022-09-09T12:57:42;17.95;;;3.22;;
63906;SDS011;50075;49.484;11.238;2022-09-09T13:00:15;17.67;;;2.92;;
63906;SDS011;50075;49.484;11.238;2022-09-09T13:02:56;14.63;;;2.40;;
63906;SDS011;50075;49.484;11.238;2022-09-09T13:07:49;16.02;;;2.63;;
63906;SDS011;50075;49.484;11.238;2022-09-09T13:10:18;17.08;;;2.88;;
63906;SDS011;50075;49.484;11.238;2022-09-09T13:12:49;17.27;;;2.83;;
63906;SDS011;50075;49.484;11.238;2022-09-09T13:15:24;16.80;;;2.60;;
63906;SDS011;50075;49.484;11.238;2022-09-09T13:17:57;13.75;;;2.20;;
63906;SDS011;50075;49.484;11.238;2022-09-09T13:20:26;18.30;;;2.95;;
63906;SDS011;50075;49.484;11.238;2022-09-09T13:22:52;16.25;;;2.42;;
63906;SDS011;50075;49.484;11.238;2022-09-09T13:25:23;19.30;;;2.90;;
63906;SDS011;50075;49.484;11.238;2022-09-09T13:28:03;17.87;;;2.70;;
63906;SDS011;50075;49.484;11.238;2022-09-09T13:30:34;28.67;;;3.22;;
63906;SDS011;50075;49.484;11.238;2022-09-09T13:35:47;26.15;;;3.20;;
63906;SDS011;50075;49.484;11.238;2022-09-09T13:38:24;19.35;;;2.80;;
63906;SDS011;50075;49.484;11.238;2022-09-09T13:41:06;21.30;;;3.00;;
63906;SDS011;50075;49.484;11.238;2022-09-09T13:43:43;18.48;;;2.75;;
63906;SDS011;50075;49.484;11.238;2022-09-09T13:48:59;22.60;;;3.20;;
63906;SDS011;50075;49.484;11.238;2022-09-09T13:51:45;23.17;;;3.38;;
63906;SDS011;50075;49.484;11.238;2022-09-09T13:54:32;17.25;;;2.60;;
63906;SDS011;50075;49.484;11.238;2022-09-09T13:56:58;23.80;;;3.33;;
63906;SDS011;50075;49.484;11.238;2022-09-09T13:59:23;17.15;;;2.58;;
63906;SDS011;50075;49.484;11.238;2022-09-09T14:01:49;20.88;;;3.05;;
63906;SDS011;50075;49.484;11.238;2022-09-09T14:04:17;18.05;;;2.60;;
63906;SDS011;50075;49.484;11.238;2022-09-09T14:06:43;23.02;;;2.90;;
63906;SDS011;50075;49.484;11.238;2022-09-09T14:09:12;22.63;;;3.17;;
63906;SDS011;50075;49.484;11.238;2022-09-09T14:11:39;20.75;;;2.90;;
63906;SDS011;50075;49.484;11.238;2022-09-09T14:14:05;26.33;;;3.60;;
63906;SDS011;50075;49.484;11.238;2022-09-09T14:16:30;15.68;;;2.53;;
63906;SDS011;50075;49.484;11.238;2022-09-09T14:18:56;18.42;;;2.65;;
63906;SDS011;50075;49.484;11.238;2022-09-09T14:21:22;19.65;;;2.90;;
63906;SDS011;50075;49.484;11.238;2022-09-09T14:23:48;17.88;;;2.63;;
63906;SDS011;50075;49.484;11.238;2022-09-09T14:26:14;23.73;;;3.28;;
63906;SDS011;50075;49.484;11.238;2022-09-09T14:28:39;20.38;;;3.00;;
63906;SDS011;50075;49.484;11.238;2022-09-09T14:31:05;23.52;;;3.53;;
63906;SDS011;50075;49.484;11.238;2022-09-09T14:33:31;24.23;;;2.97;;
63906;SDS011;50075;49.484;11.238;2022-09-09T14:36:00;20.45;;;2.75;;
63906;SDS011;50075;49.484;11.238;2022-09-09T14:38:33;25.15;;;3.45;;
63906;SDS011;50075;49.484;11.238;2022-09-09T14:41:04;30.75;;;3.60;;
63906;SDS011;50075;49.484;11.238;2022-09-09T14:43:30;21.50;;;3.10;;
63906;SDS011;50075;49.484;11.238;2022-09-09T14:45:57;16.02;;;2.63;;
63906;SDS011;50075;49.484;11.238;2022-09-09T14:48:32;26.17;;;3.50;;
63906;SDS011;50075;49.484;11.238;2022-09-09T14:51:04;23.17;;;3.25;;
63906;SDS011;50075;49.484;11.238;2022-09-09T14:53:32;28.85;;;3.85;;
63906;SDS011;50075;49.484;11.238;2022-09-09T14:56:07;20.95;;;3.10;;
63906;SDS011;50075;49.484;11.238;2022-09-09T14:58:35;26.80;;;3.67;;
63906;SDS011;50075;49.484;11.238;2022-09-09T15:01:02;25.67;;;3.65;;
63906;SDS011;50075;49.484;11.238;2022-09-09T15:03:31;22.05;;;3.35;;
63906;SDS011;50075;49.484;11.238;2022-09-09T15:05:57;23.20;;;3.50;;
63906;SDS011;50075;49.484;11.238;2022-09-09T15:08:23;20.80;;;3.13;;
63906;SDS011;50075;49.484;11.238;2022-09-09T15:10:49;24.75;;;3.83;;
63906;SDS011;50075;49.484;11.238;2022-09-09T15:13:15;21.25;;;3.58;;
63906;SDS011;50075;49.484;11.238;2022-09-09T15:15:41;30.70;;;4.30;;
63906;SDS011;50075;49.484;11.238;2022-09-09T15:18:07;20.85;;;3.40;;
63906;SDS011;50075;49.484;11.238;2022-09-09T15:20:32;21.90;;;3.38;;
63906;SDS011;50075;49.484;11.238;2022-09-09T15:22:58;25.83;;;4.03;;
63906;SDS011;50075;49.484;11.238;2022-09-09T15:25:23;19.98;;;3.10;;
63906;SDS011;50075;49.484;11.238;2022-09-09T15:27:48;26.77;;;3.65;;
63906;SDS011;50075;49.484;11.238;2022-09-09T15:30:14;21.77;;;3.05;;
63906;SDS011;50075;49.484;11.238;2022-09-09T15:32:39;21.08;;;3.30;;
63906;SDS011;50075;49.484;11.238;2022-09-09T15:35:05;23.45;;;3.55;;
63906;SDS011;50075;49.484;11.238;2022-09-09T15:37:31;22.17;;;3.05;;
63906;SDS011;50075;49.484;11.238;2022-09-09T15:39:56;15.32;;;2.60;;
63906;SDS011;50075;49.484;11.238;2022-09-09T15:42:23;21.90;;;3.15;;
63906;SDS011;50075;49.484;11.238;2022-09-09T15:44:50;31.00;;;4.13;;
63906;SDS011;50075;49.484;11.238;2022-09-09T15:47:15;29.02;;;3.75;;
63906;SDS011;50075;49.484;11.238;2022-09-09T15:49:41;27.27;;;3.65;;
63906;SDS011;50075;49.484;11.238;2022-09-09T15:52:08;32.60;;;4.28;;
63906;SDS011;50075;49.484;11.238;2022-09-09T15:54:36;26.65;;;3.65;;
63906;SDS011;50075;49.484;11.238;2022-09-09T15:57:05;37.03;;;4.70;;
63906;SDS011;50075;49.484;11.238;2022-09-09T15:59:31;26.33;;;3.85;;
63906;SDS011;50075;49.484;11.238;2022-09-09T16:01:58;25.50;;;3.58;;
63906;SDS011;50075;49.484;11.238;2022-09-09T16:04:25;35.28;;;4.22;;
63906;SDS011;50075;49.484;11.238;2022-09-09T16:07:02;30.45;;;4.15;;
63906;SDS011;50075;49.484;11.238;2022-09-09T16:09:29;22.08;;;3.05;;
63906;SDS011;50075;49.484;11.238;2022-09-09T16:11:57;20.45;;;2.90;;
63906;SDS011;50075;49.484;11.238;2022-09-09T16:14:25;28.25;;;4.03;;
63906;SDS011;50075;49.484;11.238;2022-09-09T16:16:51;22.92;;;3.22;;
63906;SDS011;50075;49.484;11.238;2022-09-09T16:19:17;28.63;;;4.10;;
63906;SDS011;50075;49.484;11.238;2022-09-09T16:21:45;23.80;;;3.47;;
63906;SDS011;50075;49.484;11.238;2022-09-09T16:24:13;30.60;;;4.18;;
63906;SDS011;50075;49.484;11.238;2022-09-09T16:26:42;31.25;;;3.97;;
63906;SDS011;50075;49.484;11.238;2022-09-09T16:29:12;30.70;;;3.92;;
63906;SDS011;50075;49.484;11.238;2022-09-09T16:31:39;38.25;;;5.25;;
63906;SDS011;50075;49.484;11.238;2022-09-09T16:34:05;34.10;;;4.80;;
63906;SDS011;50075;49.484;11.238;2022-09-09T16:36:32;36.50;;;4.75;;
63906;SDS011;50075;49.484;11.238;2022-09-09T16:39:00;28.00;;;3.90;;
63906;SDS011;50075;49.484;11.238;2022-09-09T16:41:28;22.38;;;3.25;;
63906;SDS011;50075;49.484;11.238;2022-09-09T16:43:55;19.55;;;3.05;;
63906;SDS011;50075;49.484;11.238;2022-09-09T16:46:21;24.83;;;3.33;;
63906;SDS011;50075;49.484;11.238;2022-09-09T16:48:49;22.70;;;3.03;;
63906;SDS011;50075;49.484;11.238;2022-09-09T16:51:16;21.70;;;3.03;;
63906;SDS011;50075;49.484;11.238;2022-09-09T16:53:43;27.73;;;3.55;;
63906;SDS011;50075;49.484;11.238;2022-09-09T16:56:13;18.25;;;2.28;;
63906;SDS011;50075;49.484;11.238;2022-09-09T16:58:40;34.07;;;4.17;;
63906;SDS011;50075;49.484;11.238;2022-09-09T17:01:08;37.50;;;4.47;;
63906;SDS011;50075;49.484;11.238;2022-09-09T17:03:35;30.85;;;4.03;;
63906;SDS011;50075;49.484;11.238;2022-09-09T17:06:01;30.58;;;3.92;;
63906;SDS011;50075;49.484;11.238;2022-09-09T17:08:30;29.10;;;3.67;;
63906;SDS011;50075;49.484;11.238;2022-09-09T17:10:56;40.15;;;4.72;;
63906;SDS011;50075;49.484;11.238;2022-09-09T17:13:22;29.13;;;3.67;;
63906;SDS011;50075;49.484;11.238;2022-09-09T17:15:47;45.67;;;5.18;;
63906;SDS011;50075;49.484;11.238;2022-09-09T17:18:13;36.67;;;4.32;;
63906;SDS011;50075;49.484;11.238;2022-09-09T17:20:38;34.25;;;4.10;;
63906;SDS011;50075;49.484;11.238;2022-09-09T17:23:05;37.47;;;4.47;;